Aughwick, Pennsylvania
Current Conditions -  °F | °C
As of 8:53 AM on Friday 24 Oct 2014 (Local Time) from KAOO Reporting Station
Few Clouds Few Clouds  
Wind Chill: 44°   Ceiling: Unl
Heat Index: 47°   Visibility: 10mi
Dew Point: 40°   Wind: 6mph
Humidity: 77%   Direction: 300°WNW
Pressure: 30.04"   Gusts: NA
Location:  40.4281°N, 77.8329°W
Report Text: KAOO 241253Z AUTO 30005KT 10SM FEW022 08/04 A3004 RMK AO2 SLP175 T00830044
Loading
Personal Weather Stations






























Interactive Weather Map
Tropical Storm Tracking
New forecast layout! Learn more

10-Day Weather Forecast

Advertisements
Track Severe Weather on mobile